Time;durP1;ratioP1;P1;durP2;ratioP2;P2;SDS_P1;SDS_P2;PMS_P1;PMS_P2;Temp;Humidity;BMP_temperature;BMP_pressure;BME280_temperature;BME280_humidity;BME280_pressure;Samples;Min_cycle;Max_cycle;Signal;HPM_P1;HPM_P2
2022/07/23 00:00:19;;;;;;;4.10;1.90;;;;;;;16.03;100.00;99651.63;1659601;86;22307;-59
2022/07/23 00:02:47;;;;;;;3.90;2.00;;;;;;;16.01;100.00;99655.00;1659118;86;21643;-60
2022/07/23 00:05:14;;;;;;;3.57;1.70;;;;;;;16.01;100.00;99653.68;1659269;86;21046;-59
2022/07/23 00:07:42;;;;;;;3.07;2.13;;;;;;;16.05;100.00;99650.87;1658963;86;21509;-70
2022/07/23 00:10:09;;;;;;;3.07;1.70;;;;;;;16.01;100.00;99656.31;1658758;86;21568;-59
2022/07/23 00:12:37;;;;;;;5.70;2.07;;;;;;;16.02;100.00;99662.67;1658896;86;21532;-60
2022/07/23 00:15:07;;;;;;;4.33;2.20;;;;;;;16.03;100.00;99663.46;1658477;86;21007;-61
2022/07/23 00:17:35;;;;;;;3.97;1.83;;;;;;;16.00;100.00;99661.30;1658232;86;21110;-65
2022/07/23 00:20:03;;;;;;;3.33;1.70;;;;;;;15.96;100.00;99658.33;1658614;86;21113;-71
2022/07/23 00:22:31;;;;;;;3.33;1.80;;;;;;;15.99;100.00;99653.92;1658854;86;22358;-59
2022/07/23 00:24:58;;;;;;;5.13;1.83;;;;;;;16.00;100.00;99650.78;1659112;86;21250;-64
2022/07/23 00:27:25;;;;;;;4.43;2.00;;;;;;;15.95;100.00;99647.54;1657430;86;21126;-60
2022/07/23 00:29:52;;;;;;;3.77;1.87;;;;;;;15.97;100.00;99650.72;1658852;86;21490;-59
2022/07/23 00:32:20;;;;;;;4.47;2.20;;;;;;;15.89;100.00;99660.28;1658168;86;20995;-70
2022/07/23 00:34:47;;;;;;;3.90;1.60;;;;;;;15.89;100.00;99658.17;1658593;86;21871;-61
2022/07/23 00:37:14;;;;;;;3.27;1.80;;;;;;;15.91;100.00;99656.92;1657770;86;21395;-61
2022/07/23 00:39:41;;;;;;;4.67;2.00;;;;;;;15.92;100.00;99657.72;1658365;86;21062;-61
2022/07/23 00:42:11;;;;;;;2.67;1.53;;;;;;;15.93;100.00;99665.87;1658795;86;21573;-60
2022/07/23 00:44:41;;;;;;;2.70;1.70;;;;;;;15.87;100.00;99666.27;1658400;86;21643;-68
2022/07/23 00:47:10;;;;;;;4.37;1.57;;;;;;;15.86;100.00;99673.88;1658789;86;21570;-70
2022/07/23 00:49:38;;;;;;;3.13;2.03;;;;;;;15.86;100.00;99667.84;1658891;86;21569;-61
2022/07/23 00:52:07;;;;;;;3.70;2.10;;;;;;;15.86;100.00;99675.20;1659099;86;22166;-61
2022/07/23 00:54:35;;;;;;;3.77;1.97;;;;;;;15.84;100.00;99676.48;1658524;86;21606;-70
2022/07/23 00:57:03;;;;;;;4.27;1.97;;;;;;;15.91;100.00;99687.64;1658929;86;21840;-69
2022/07/23 00:59:31;;;;;;;3.37;1.93;;;;;;;15.92;100.00;99681.37;1639920;86;21024;-59
2022/07/23 01:01:58;;;;;;;4.13;2.30;;;;;;;15.95;100.00;99683.55;1658850;86;21276;-59
2022/07/23 01:04:25;;;;;;;3.73;2.10;;;;;;;15.96;100.00;99679.88;1648108;86;21113;-61
2022/07/23 01:06:53;;;;;;;5.27;2.97;;;;;;;15.79;100.00;99681.89;1634818;87;20947;-64
2022/07/23 01:09:21;;;;;;;4.87;2.63;;;;;;;15.79;100.00;99688.98;1634752;87;21521;-64
2022/07/23 01:11:49;;;;;;;4.60;2.83;;;;;;;15.72;100.00;99690.92;1635627;87;21396;-60
2022/07/23 01:14:18;;;;;;;4.37;2.53;;;;;;;15.76;100.00;99698.14;1635247;87;21269;-60
2022/07/23 01:16:47;;;;;;;4.77;2.40;;;;;;;15.73;100.00;99703.84;1635323;87;21011;-71
2022/07/23 01:19:15;;;;;;;3.50;2.37;;;;;;;15.81;100.00;99706.13;1634476;87;21069;-71
2022/07/23 01:21:47;;;;;;;4.33;2.47;;;;;;;15.78;100.00;99708.41;1635794;87;21008;-59
2022/07/23 01:24:14;;;;;;;7.10;3.60;;;;;;;15.82;100.00;99710.86;1635817;87;21006;-60
2022/07/23 01:26:45;;;;;;;4.63;2.80;;;;;;;15.75;100.00;99716.23;1633530;87;21133;-70
2022/07/23 01:29:12;;;;;;;8.03;4.10;;;;;;;15.79;100.00;99705.54;1632505;87;21125;-60
2022/07/23 01:31:41;;;;;;;5.53;3.43;;;;;;;15.80;100.00;99703.22;1633541;87;21058;-60
2022/07/23 01:34:08;;;;;;;5.97;3.77;;;;;;;15.83;100.00;99703.77;1633559;87;21284;-61
2022/07/23 01:36:38;;;;;;;4.80;3.33;;;;;;;15.89;100.00;99709.43;1633469;87;21066;-60
2022/07/23 01:39:06;;;;;;;4.43;3.53;;;;;;;15.82;100.00;99716.11;1632561;87;21160;-61
2022/07/23 01:41:33;;;;;;;6.90;3.40;;;;;;;15.87;100.00;99712.79;1633470;87;21488;-59
2022/07/23 01:44:00;;;;;;;5.00;3.47;;;;;;;16.07;100.00;99707.17;1633347;87;21462;-60
2022/07/23 01:46:29;;;;;;;4.57;3.67;;;;;;;16.11;100.00;99709.10;1633268;87;21074;-60
2022/07/23 01:48:56;;;;;;;5.47;3.80;;;;;;;16.11;100.00;99708.31;1632935;87;21026;-66
2022/07/23 01:51:28;;;;;;;5.47;3.37;;;;;;;16.13;100.00;99712.80;1632813;87;22328;-60
2022/07/23 01:54:00;;;;;;;8.23;4.60;;;;;;;16.12;100.00;99709.38;1639630;86;21479;-59
2022/07/23 01:56:27;;;;;;;5.37;3.93;;;;;;;16.11;100.00;99710.42;1635217;87;21110;-61
2022/07/23 01:58:55;;;;;;;7.47;4.40;;;;;;;16.15;100.00;99710.23;1639128;87;21101;-65
2022/07/23 02:01:22;;;;;;;6.77;5.40;;;;;;;16.14;100.00;99706.50;1632621;87;21348;-60
2022/07/23 02:03:50;;;;;;;7.93;4.70;;;;;;;16.15;100.00;99705.49;1636428;86;21353;-60
2022/07/23 02:06:17;;;;;;;7.97;4.77;;;;;;;16.07;100.00;99711.91;1664485;86;21015;-71
2022/07/23 02:08:46;;;;;;;6.63;4.60;;;;;;;16.12;100.00;99716.47;1664749;86;20982;-60
2022/07/23 02:11:14;;;;;;;5.73;3.70;;;;;;;16.19;100.00;99723.20;1664226;86;21008;-63
2022/07/23 02:13:42;;;;;;;8.37;4.10;;;;;;;16.24;100.00;99717.23;1664651;86;21793;-64
2022/07/23 02:16:09;;;;;;;7.87;4.13;;;;;;;16.36;100.00;99723.77;1665089;86;21173;-60
2022/07/23 02:18:37;;;;;;;4.63;3.93;;;;;;;16.47;100.00;99727.67;1664262;85;21066;-61
2022/07/23 02:21:04;;;;;;;5.57;4.10;;;;;;;16.37;100.00;99730.12;1664378;86;20971;-70
2022/07/23 02:23:33;;;;;;;4.80;3.77;;;;;;;16.36;100.00;99726.41;1664721;86;21569;-60
2022/07/23 02:26:01;;;;;;;4.30;3.50;;;;;;;16.42;100.00;99722.84;1664862;86;21501;-60
2022/07/23 02:28:30;;;;;;;5.30;3.83;;;;;;;16.33;100.00;99725.05;1664118;85;21300;-70
2022/07/23 02:30:58;;;;;;;6.10;4.37;;;;;;;16.33;100.00;99722.42;1664290;86;21078;-68
2022/07/23 02:33:25;;;;;;;6.20;4.00;;;;;;;16.41;100.00;99725.20;1664659;86;21520;-60
2022/07/23 02:35:54;;;;;;;9.83;4.40;;;;;;;16.40;100.00;99725.72;1664496;86;22150;-59
2022/07/23 02:38:21;;;;;;;5.87;4.00;;;;;;;16.45;100.00;99736.33;1664270;86;20948;-61
2022/07/23 02:40:49;;;;;;;5.40;3.87;;;;;;;16.47;100.00;99733.45;1665009;86;21173;-59
2022/07/23 02:43:17;;;;;;;4.43;3.80;;;;;;;16.59;100.00;99728.94;1664494;86;21081;-70
2022/07/23 02:45:45;;;;;;;7.30;4.17;;;;;;;16.63;100.00;99732.73;1664309;85;22026;-60
2022/07/23 02:48:14;;;;;;;5.07;3.87;;;;;;;16.70;100.00;99730.72;1664262;86;21019;-67
2022/07/23 02:50:43;;;;;;;;;;;;;;;16.72;100.00;99737.09;1667760;86;21369;-60
2022/07/23 02:53:11;;;;;;;6.77;4.03;;;;;;;16.76;100.00;99743.50;1665216;86;21783;-62
2022/07/23 02:55:39;;;;;;;5.27;4.10;;;;;;;16.79;100.00;99741.72;1664175;86;21448;-64
2022/07/23 02:58:06;;;;;;;6.23;3.93;;;;;;;16.81;100.00;99744.11;1664578;86;21283;-60
2022/07/23 03:00:34;;;;;;;5.20;4.17;;;;;;;16.74;100.00;99741.13;1665017;86;21003;-59
2022/07/23 03:03:01;;;;;;;7.90;3.77;;;;;;;16.77;100.00;99736.68;1665137;86;21012;-59
2022/07/23 03:05:29;;;;;;;6.37;4.40;;;;;;;16.79;100.00;99741.72;1654205;86;21317;-61
2022/07/23 03:07:56;;;;;;;5.93;4.80;;;;;;;16.80;100.00;99739.89;1648574;86;21455;-62
2022/07/23 03:10:24;;;;;;;7.60;4.50;;;;;;;16.91;100.00;99741.66;1649600;86;21021;-60
2022/07/23 03:12:53;;;;;;;8.97;4.50;;;;;;;17.02;100.00;99746.86;1649838;86;21033;-62
2022/07/23 03:15:20;;;;;;;6.93;4.87;;;;;;;17.03;100.00;99743.19;1649929;86;20968;-59
2022/07/23 03:17:48;;;;;;;7.47;5.83;;;;;;;17.24;100.00;99744.86;1649194;86;21588;-61
2022/07/23 03:20:15;;;;;;;10.50;5.87;;;;;;;17.32;100.00;99754.20;1649869;86;21616;-60
2022/07/23 03:22:46;;;;;;;8.77;5.57;;;;;;;17.42;100.00;99755.66;1649820;86;20996;-61
2022/07/23 03:25:13;;;;;;;14.43;7.03;;;;;;;17.49;100.00;99755.77;1649548;86;21064;-61
2022/07/23 03:27:41;;;;;;;7.67;5.00;;;;;;;17.58;100.00;99756.19;1649191;86;20949;-70
2022/07/23 03:30:10;;;;;;;10.10;4.93;;;;;;;17.71;100.00;99749.77;1649726;86;21782;-61
2022/07/23 03:32:39;;;;;;;5.93;4.47;;;;;;;17.68;100.00;99751.56;1649832;86;20985;-60
2022/07/23 03:35:08;;;;;;;13.53;5.67;;;;;;;17.77;100.00;99752.80;1649880;86;21539;-59
2022/07/23 03:37:35;;;;;;;6.33;5.20;;;;;;;17.75;100.00;99753.02;1649525;86;21134;-62
2022/07/23 03:40:03;;;;;;;10.33;5.10;;;;;;;17.82;100.00;99749.42;1649783;86;21490;-60
2022/07/23 03:42:31;;;;;;;8.60;6.10;;;;;;;17.85;100.00;99754.22;1650256;86;21586;-60
2022/07/23 03:44:59;;;;;;;7.33;5.53;;;;;;;17.92;100.00;99755.64;1650140;86;21067;-61
2022/07/23 03:47:28;;;;;;;13.47;7.23;;;;;;;17.98;100.00;99764.41;1649923;86;20968;-70
2022/07/23 03:49:55;;;;;;;12.90;6.50;;;;;;;18.04;100.00;99768.72;1648695;86;21127;-69
2022/07/23 03:52:22;;;;;;;8.30;5.50;;;;;;;18.08;100.00;99771.14;1649335;86;21901;-60
2022/07/23 03:54:49;;;;;;;7.97;4.60;;;;;;;18.08;100.00;99768.50;1649043;86;21164;-60
2022/07/23 03:57:16;;;;;;;8.53;5.07;;;;;;;18.12;100.00;99773.56;1649079;86;21036;-60
2022/07/23 03:59:43;;;;;;;7.13;4.70;;;;;;;18.12;100.00;99777.52;1648494;86;21035;-61
2022/07/23 04:02:12;;;;;;;13.70;8.53;;;;;;;18.10;100.00;99782.23;1654313;86;21011;-63
2022/07/23 04:04:40;;;;;;;15.53;8.77;;;;;;;18.06;100.00;99785.08;1651824;86;21995;-62
2022/07/23 04:07:07;;;;;;;13.10;8.13;;;;;;;18.00;100.00;99772.89;1664882;86;21167;-60
2022/07/23 04:09:36;;;;;;;16.47;8.20;;;;;;;17.83;100.00;99778.70;1664156;86;20963;-63
2022/07/23 04:12:05;;;;;;;15.90;8.63;;;;;;;17.84;100.00;99778.47;1664797;86;21129;-62
2022/07/23 04:14:32;;;;;;;16.33;9.53;;;;;;;17.89;100.00;99777.73;1664499;86;21106;-61
2022/07/23 04:16:59;;;;;;;13.50;8.87;;;;;;;17.79;100.00;99788.13;1664690;86;21522;-62
2022/07/23 04:19:28;;;;;;;12.60;7.23;;;;;;;17.82;100.00;99787.66;1664723;86;22759;-69
2022/07/23 04:21:58;;;;;;;9.73;6.30;;;;;;;17.74;100.00;99788.83;1664590;85;21015;-70
2022/07/23 04:24:25;;;;;;;14.97;8.13;;;;;;;17.79;100.00;99789.45;1664884;86;21538;-61
2022/07/23 04:26:53;;;;;;;19.53;10.00;;;;;;;17.91;100.00;99784.34;1665045;86;21046;-60
2022/07/23 04:29:20;;;;;;;12.43;7.97;;;;;;;17.97;100.00;99797.09;1668475;85;21031;-61
2022/07/23 04:31:47;;;;;;;12.20;7.13;;;;;;;18.03;100.00;99794.00;1664330;86;21559;-61
2022/07/23 04:34:15;;;;;;;10.50;5.57;;;;;;;18.08;100.00;99792.77;1664103;85;21444;-68
2022/07/23 04:36:42;;;;;;;9.53;6.33;;;;;;;18.19;100.00;99800.56;1664845;86;21592;-60
2022/07/23 04:39:09;;;;;;;9.07;5.20;;;;;;;18.08;100.00;99796.72;1664975;86;20945;-60
2022/07/23 04:41:36;;;;;;;8.07;4.60;;;;;;;18.12;100.00;99795.98;1664832;86;21601;-70
2022/07/23 04:44:04;;;;;;;8.70;4.43;;;;;;;18.11;100.00;99798.36;1664755;86;21392;-63
2022/07/23 04:46:32;;;;;;;12.00;6.20;;;;;;;18.15;100.00;99799.46;1664513;85;21084;-62
2022/07/23 04:48:59;;;;;;;10.50;6.33;;;;;;;18.30;100.00;99798.86;1664365;86;21066;-60
2022/07/23 04:51:28;;;;;;;14.30;6.23;;;;;;;18.35;100.00;99799.44;1664747;86;21145;-71
2022/07/23 04:53:56;;;;;;;8.00;5.10;;;;;;;18.35;100.00;99801.55;1667981;85;21002;-62
2022/07/23 04:56:23;;;;;;;9.57;5.90;;;;;;;18.30;100.00;99809.95;1664403;86;21882;-62
2022/07/23 04:58:52;;;;;;;7.50;5.27;;;;;;;18.43;100.00;99812.20;1665043;86;21835;-63
2022/07/23 05:01:20;;;;;;;6.77;4.57;;;;;;;18.57;100.00;99814.76;1665092;86;22067;-68
2022/07/23 05:03:48;;;;;;;6.23;4.57;;;;;;;18.71;100.00;99808.09;1664931;86;21576;-61
2022/07/23 05:06:16;;;;;;;5.83;4.03;;;;;;;18.81;100.00;99813.20;1665107;86;21059;-61
2022/07/23 05:08:43;;;;;;;6.13;4.60;;;;;;;18.91;100.00;99815.95;1664669;85;21190;-60
2022/07/23 05:11:11;;;;;;;9.50;4.60;;;;;;;18.96;100.00;99808.87;1664791;86;21022;-60
2022/07/23 05:13:38;;;;;;;6.10;4.37;;;;;;;19.00;100.00;99811.81;1664069;86;21815;-60
2022/07/23 05:16:07;;;;;;;5.97;3.83;;;;;;;19.11;100.00;99822.75;1665327;86;21125;-60
2022/07/23 05:18:35;;;;;;;7.70;4.27;;;;;;;19.26;100.00;99821.30;1664742;86;20994;-61
2022/07/23 05:21:04;;;;;;;5.20;4.10;;;;;;;19.30;100.00;99818.44;1664761;86;21181;-61
2022/07/23 05:23:31;;;;;;;7.00;4.03;;;;;;;19.17;100.00;99819.13;1665006;86;21834;-61
2022/07/23 05:25:59;;;;;;;4.90;3.93;;;;;;;19.11;100.00;99817.47;1665205;86;21058;-60
2022/07/23 05:28:27;;;;;;;5.30;4.00;;;;;;;19.13;100.00;99819.34;1664890;86;21086;-60
2022/07/23 05:30:55;;;;;;;6.67;4.30;;;;;;;19.20;100.00;99824.41;1664603;86;21057;-61
2022/07/23 05:33:22;;;;;;;6.13;3.93;;;;;;;19.17;100.00;99820.44;1664560;86;21265;-61
2022/07/23 05:35:50;;;;;;;6.33;4.60;;;;;;;19.04;100.00;99823.47;1664939;86;21425;-61
2022/07/23 05:38:32;;;;;;;6.25;4.10;;;;;;;19.23;100.00;99828.41;1665380;86;21069;-59
2022/07/23 05:40:59;;;;;;;6.80;5.27;;;;;;;19.36;100.00;99829.33;1664568;86;21022;-71
2022/07/23 05:43:27;;;;;;;9.03;6.73;;;;;;;19.42;100.00;99821.70;1665407;86;21413;-63
2022/07/23 05:45:55;;;;;;;10.13;6.10;;;;;;;19.55;100.00;99827.11;1665394;86;21282;-60
2022/07/23 05:48:22;;;;;;;11.83;7.77;;;;;;;19.54;100.00;99818.89;1665461;86;21016;-60
2022/07/23 05:50:57;;;;;;;12.03;7.57;;;;;;;19.69;100.00;99826.44;1664681;85;20987;-62
2022/07/23 05:53:32;;;;;;;16.10;9.93;;;;;;;19.94;100.00;99823.70;1665442;86;22028;-60
2022/07/23 05:56:01;;;;;;;15.50;9.07;;;;;;;20.05;100.00;99821.92;1665248;86;21063;-59
2022/07/23 05:58:30;;;;;;;16.17;8.67;;;;;;;20.25;100.00;99818.05;1665417;86;20939;-59
2022/07/23 06:00:58;;;;;;;12.80;7.33;;;;;;;20.32;100.00;99813.33;1663959;86;20983;-65
2022/07/23 06:03:28;;;;;;;11.60;7.20;;;;;;;20.37;100.00;99813.87;1665666;86;21634;-60
2022/07/23 06:05:56;;;;;;;10.60;6.50;;;;;;;20.42;100.00;99813.91;1658983;86;21051;-60
2022/07/23 06:08:24;;;;;;;8.63;6.17;;;;;;;20.52;100.00;99815.28;1650176;86;21146;-59
2022/07/23 06:10:51;;;;;;;8.43;5.83;;;;;;;20.76;100.00;99809.52;1649243;86;21125;-70
2022/07/23 06:13:18;;;;;;;9.50;7.03;;;;;;;20.93;100.00;99811.97;1649299;86;21376;-61
2022/07/23 06:15:46;;;;;;;14.13;7.40;;;;;;;21.18;100.00;99809.89;1649853;86;21439;-60
2022/07/23 06:18:16;;;;;;;13.47;7.53;;;;;;;21.57;100.00;99808.86;1649382;86;21127;-62
2022/07/23 06:20:43;;;;;;;7.97;5.17;;;;;;;22.29;100.00;99798.91;1649257;86;20964;-65
2022/07/23 06:23:12;;;;;;;4.07;3.40;;;;;;;23.31;100.00;99801.00;1649047;86;22511;-71
2022/07/23 06:25:39;;;;;;;5.20;4.13;;;;;;;24.10;100.00;99800.28;1649278;86;21514;-61
2022/07/23 06:28:06;;;;;;;6.10;3.80;;;;;;;24.70;100.00;99793.95;1649063;86;21004;-60
2022/07/23 06:30:35;;;;;;;5.30;4.08;;;;;;;25.31;100.00;99795.48;1649803;86;21027;-70
2022/07/23 06:33:03;;;;;;;4.75;3.52;;;;;;;25.63;100.00;99787.98;1649327;86;21071;-59
2022/07/23 06:35:33;;;;;;;4.87;3.12;;;;;;;25.90;100.00;99788.03;1631845;86;21160;-64
2022/07/23 06:38:00;;;;;;;4.12;3.50;;;;;;;26.22;100.00;99787.70;1649276;86;21460;-59
2022/07/23 06:40:27;;;;;;;4.92;3.27;;;;;;;26.49;100.00;99790.11;1649670;86;21523;-62
2022/07/23 06:42:55;;;;;;;4.08;3.00;;;;;;;27.13;100.00;99796.17;1648733;86;21035;-59
2022/07/23 06:45:25;;;;;;;3.50;3.20;;;;;;;28.11;100.00;99792.03;1648839;86;21055;-71
2022/07/23 06:47:52;;;;;;;3.92;3.30;;;;;;;28.70;100.00;99782.28;1649257;86;21240;-59
2022/07/23 06:50:20;;;;;;;3.98;2.77;;;;;;;29.18;100.00;99779.98;1649316;86;21028;-59
2022/07/23 06:52:49;;;;;;;2.92;2.40;;;;;;;29.60;89.02;99782.12;1648808;86;20948;-61
2022/07/23 06:55:16;;;;;;;4.40;2.83;;;;;;;29.75;92.45;99788.30;1649410;86;21504;-69
2022/07/23 06:57:45;;;;;;;4.53;2.85;;;;;;;30.23;75.71;99785.24;1648814;86;21502;-58
2022/07/23 07:00:14;;;;;;;2.83;2.42;;;;;;;29.98;76.69;99786.92;1649402;86;21164;-59
2022/07/23 07:02:42;;;;;;;5.00;3.12;;;;;;;30.06;74.49;99782.61;1648114;86;21091;-65
2022/07/23 07:05:09;;;;;;;3.90;3.12;;;;;;;29.72;74.23;99783.01;1649388;86;21412;-59
2022/07/23 07:07:36;;;;;;;6.70;4.28;;;;;;;29.45;77.77;99786.09;1648999;86;21024;-64
2022/07/23 07:10:06;;;;;;;7.15;4.65;;;;;;;29.36;79.27;99778.59;1648819;86;21567;-58
2022/07/23 07:12:35;;;;;;;7.75;5.25;;;;;;;29.48;83.07;99780.86;1648954;86;21884;-61
2022/07/23 07:15:03;;;;;;;6.53;3.92;;;;;;;29.64;81.68;99775.78;1649278;86;21083;-59
2022/07/23 07:17:31;;;;;;;4.65;2.33;;;;;;;29.99;80.54;99776.95;1649533;86;21560;-69
2022/07/23 07:19:59;;;;;;;3.42;2.30;;;;;;;30.38;66.83;99772.31;1648952;86;21122;-60
2022/07/23 07:22:26;;;;;;;3.40;2.00;;;;;;;30.39;64.99;99771.22;1649267;86;20988;-60
2022/07/23 07:24:54;;;;;;;3.98;2.50;;;;;;;30.61;63.78;99779.50;1648891;86;22508;-59
2022/07/23 07:27:23;;;;;;;3.27;2.22;;;;;;;30.84;60.06;99779.44;1648742;86;21592;-68
2022/07/23 07:29:50;;;;;;;2.67;2.00;;;;;;;30.88;61.50;99779.56;1648971;86;21068;-59
2022/07/23 07:32:19;;;;;;;2.35;1.82;;;;;;;31.21;59.68;99776.28;1649222;86;21339;-57
2022/07/23 07:34:46;;;;;;;3.55;2.10;;;;;;;31.61;56.03;99780.33;1648461;86;21111;-58
2022/07/23 07:37:14;;;;;;;4.00;2.20;;;;;;;31.60;54.18;99779.55;1648952;86;21400;-58
2022/07/23 07:39:41;;;;;;;2.20;1.90;;;;;;;31.59;55.14;99785.25;1648562;86;21589;-65
2022/07/23 07:42:10;;;;;;;2.67;1.95;;;;;;;31.60;52.96;99775.50;1649355;86;22103;-57
2022/07/23 07:44:38;;;;;;;3.08;2.33;;;;;;;31.78;52.96;99771.22;1649315;86;21032;-68
2022/07/23 07:47:06;;;;;;;2.27;1.77;;;;;;;32.25;54.43;99778.31;1648923;86;21533;-58
2022/07/23 07:49:33;;;;;;;2.50;1.60;;;;;;;32.81;49.82;99780.32;1648804;86;21899;-65
2022/07/23 07:52:01;;;;;;;3.65;2.10;;;;;;;33.06;46.80;99776.95;1648666;86;21108;-57
2022/07/23 07:54:28;;;;;;;2.10;1.40;;;;;;;33.16;45.23;99775.89;1649507;86;21087;-58
2022/07/23 07:56:55;;;;;;;2.30;1.60;;;;;;;33.16;45.69;99775.11;1648697;86;21616;-58
2022/07/23 07:59:23;;;;;;;3.00;2.12;;;;;;;33.33;44.61;99769.36;1648995;86;21086;-60
2022/07/23 08:01:50;;;;;;;2.42;1.70;;;;;;;33.23;44.32;99776.64;1648879;86;21286;-58
2022/07/23 08:04:18;;;;;;;3.90;2.37;;;;;;;32.99;45.92;99781.59;1649269;86;21087;-58
2022/07/23 08:06:46;;;;;;;3.67;2.05;;;;;;;32.74;44.96;99781.47;1656096;86;21065;-62
2022/07/23 08:09:13;;;;;;;4.03;2.10;;;;;;;32.66;46.77;99779.13;1664735;86;21027;-58
2022/07/23 08:11:41;;;;;;;3.52;2.20;;;;;;;33.08;46.34;99782.23;1665031;86;21220;-67
2022/07/23 08:14:11;;;;;;;2.42;1.40;;;;;;;33.43;44.86;99770.20;1664584;86;21045;-58
2022/07/23 08:16:38;;;;;;;2.52;1.55;;;;;;;33.63;43.19;99772.44;1664774;85;21043;-57
2022/07/23 08:19:06;;;;;;;2.25;1.50;;;;;;;33.32;43.15;99775.90;1664085;86;21014;-61
2022/07/23 08:21:33;;;;;;;3.87;1.75;;;;;;;32.89;44.00;99763.18;1664764;86;21496;-57
2022/07/23 08:24:01;;;;;;;2.65;1.47;;;;;;;33.00;44.26;99769.68;1664810;86;21016;-67
2022/07/23 08:26:28;;;;;;;3.40;1.60;;;;;;;32.90;43.35;99771.49;1664881;86;21657;-57
2022/07/23 08:28:55;;;;;;;3.05;1.47;;;;;;;32.54;44.22;99774.53;1664693;86;21130;-58
2022/07/23 08:31:23;;;;;;;2.77;1.60;;;;;;;32.18;43.89;99779.44;1664951;86;21142;-58
2022/07/23 08:33:52;;;;;;;3.20;1.60;;;;;;;31.80;45.90;99778.42;1664879;86;21607;-57
2022/07/23 08:36:19;;;;;;;2.40;1.75;;;;;;;31.58;45.01;99775.04;1664749;85;21114;-65
2022/07/23 08:38:46;;;;;;;2.40;1.62;;;;;;;31.15;45.87;99777.63;1664828;86;21311;-65
2022/07/23 08:41:13;;;;;;;4.95;1.50;;;;;;;30.87;48.48;99778.75;1664428;85;21074;-60
2022/07/23 08:43:40;;;;;;;2.22;1.80;;;;;;;30.70;48.60;99788.30;1665029;86;21054;-58
2022/07/23 08:46:08;;;;;;;4.05;1.80;;;;;;;30.50;48.80;99777.22;1665048;86;21068;-57
2022/07/23 08:48:37;;;;;;;1.87;1.60;;;;;;;30.41;49.51;99775.14;1664165;86;21130;-65
2022/07/23 08:51:05;;;;;;;2.80;2.08;;;;;;;30.25;49.00;99778.97;1664346;86;21242;-58
2022/07/23 08:53:33;;;;;;;2.90;1.50;;;;;;;30.16;49.96;99781.47;1665359;86;21992;-57
2022/07/23 08:56:02;;;;;;;1.72;1.00;;;;;;;30.17;50.57;99774.44;1665285;86;21059;-57
2022/07/23 08:58:29;;;;;;;2.42;1.52;;;;;;;30.54;49.94;99776.80;1665629;86;21089;-66
2022/07/23 09:00:57;;;;;;;1.90;1.17;;;;;;;30.86;48.57;99776.41;1664945;86;21046;-57
2022/07/23 09:03:28;;;;;;;1.87;1.20;;;;;;;31.02;47.22;99767.92;1665533;86;21229;-57
2022/07/23 09:05:58;;;;;;;2.37;1.22;;;;;;;30.78;46.16;99772.67;1665652;86;21058;-57
2022/07/23 09:08:36;;;;;;;3.05;1.30;;;;;;;30.67;47.73;99770.13;1635116;87;20951;-64
2022/07/23 09:11:05;;;;;;;4.97;1.70;;;;;;;30.90;48.89;99767.89;1635173;87;21110;-56
2022/07/23 09:13:49;;;;;;;2.80;1.57;;;;;;;31.15;48.71;99763.38;1635758;87;21109;-58
2022/07/23 09:16:26;;;;;;;3.83;1.57;;;;;;;31.39;47.04;99762.67;1634560;87;21159;-66
2022/07/23 09:18:57;;;;;;;2.52;1.85;;;;;;;31.50;46.12;99758.42;1632593;87;20967;-57
2022/07/23 09:21:31;;;;;;;1.95;1.40;;;;;;;31.34;46.71;99770.97;1635327;87;20979;-57
2022/07/23 09:24:10;;;;;;;2.98;1.30;;;;;;;31.16;45.41;99768.42;1634017;87;21090;-65
2022/07/23 09:26:44;;;;;;;2.27;1.60;;;;;;;30.82;46.55;99769.55;1635214;87;21098;-58
2022/07/23 09:29:20;;;;;;;2.10;1.50;;;;;;;31.05;47.30;99760.54;1635321;87;21263;-57
2022/07/23 09:32:02;;;;;;;1.70;1.10;;;;;;;31.33;46.21;99754.56;1634068;87;21125;-57
2022/07/23 09:34:38;;;;;;;2.25;1.20;;;;;;;31.60;46.81;99745.87;1635091;87;20978;-57
2022/07/23 09:37:13;;;;;;;2.22;1.05;;;;;;;31.74;44.65;99748.98;1634717;87;21048;-61
2022/07/23 09:39:41;;;;;;;2.15;1.45;;;;;;;31.48;44.62;99748.53;1634896;87;21331;-58
2022/07/23 09:42:24;;;;;;;7.15;1.70;;;;;;;31.17;48.73;99753.84;1635369;87;21173;-59
2022/07/23 09:44:57;;;;;;;3.52;1.80;;;;;;;30.46;76.28;99752.66;1634189;87;20928;-64
2022/07/23 09:47:26;;;;;;;3.87;1.90;;;;;;;28.97;100.00;99744.94;1634829;87;21372;-58
2022/07/23 09:50:08;;;;;;;3.62;2.00;;;;;;;27.93;100.00;99751.55;1634885;87;21023;-57
2022/07/23 09:52:37;;;;;;;3.75;1.85;;;;;;;27.34;100.00;99749.06;1634325;87;21118;-62
2022/07/23 09:55:06;;;;;;;2.50;1.80;;;;;;;27.08;100.00;99746.20;1613890;87;22392;-57
2022/07/23 09:57:32;;;;;;;2.55;1.62;;;;;;;26.79;100.00;99739.97;1634779;87;21063;-55
2022/07/23 10:00:04;;;;;;;1.77;1.40;;;;;;;26.50;100.00;99747.03;1635013;87;21098;-56
2022/07/23 10:02:33;;;;;;;3.60;2.12;;;;;;;26.34;100.00;99740.42;1634581;87;21062;-59
2022/07/23 10:05:19;;;;;;;3.62;1.80;;;;;;;26.29;100.00;99741.33;1634775;87;21833;-56
2022/07/23 10:08:05;;;;;;;3.12;1.72;;;;;;;26.51;100.00;99734.45;1635101;87;21536;-62
2022/07/23 10:10:48;;;;;;;2.55;1.30;;;;;;;26.93;100.00;99730.53;1617607;87;21320;-57
2022/07/23 10:13:55;;;;;;;2.92;1.40;;;;;;;27.22;100.00;99722.09;1632283;87;21110;-58
2022/07/23 10:16:24;;;;;;;5.28;2.75;;;;;;;27.57;100.00;99716.34;1633084;87;21283;-55
2022/07/23 10:18:51;;;;;;;5.45;3.62;;;;;;;28.09;100.00;99728.57;1633177;87;21067;-57
2022/07/23 10:21:27;;;;;;;3.77;2.30;;;;;;;28.42;94.93;99746.16;1632468;87;21328;-56
2022/07/23 10:24:20;;;;;;;2.80;1.82;;;;;;;28.05;98.71;99758.98;1633100;87;21403;-56
2022/07/23 10:27:18;;;;;;;3.35;1.90;;;;;;;26.76;100.00;99763.30;1627987;87;21081;-55
2022/07/23 10:30:04;;;;;;;5.65;1.85;;;;;;;25.38;100.00;99773.19;1633258;87;21093;-56
2022/07/23 10:32:42;;;;;;;3.20;1.77;;;;;;;24.47;100.00;99783.61;1632802;87;21130;-59
2022/07/23 10:35:20;;;;;;;3.00;1.87;;;;;;;24.01;100.00;99787.31;1632853;87;21986;-57
2022/07/23 10:37:51;;;;;;;3.60;1.63;;;;;;;23.71;100.00;99784.44;1632093;87;21556;-55
2022/07/23 10:40:22;;;;;;;3.77;2.07;;;;;;;23.55;100.00;99789.88;1632408;87;21526;-56
2022/07/23 10:42:55;;;;;;;3.85;2.02;;;;;;;23.48;100.00;99784.62;1632786;87;21983;-55
2022/07/23 10:45:34;;;;;;;2.30;1.60;;;;;;;23.55;100.00;99786.42;1632307;87;21034;-64
2022/07/23 10:48:29;;;;;;;2.57;1.73;;;;;;;23.70;100.00;99783.64;1632166;87;21303;-59
2022/07/23 10:51:15;;;;;;;3.77;1.80;;;;;;;23.81;100.00;99784.34;1632176;87;21061;-58
2022/07/23 10:53:59;;;;;;;3.63;2.17;;;;;;;23.76;100.00;99784.41;1632277;87;20975;-58
2022/07/23 10:57:00;;;;;;;7.47;1.97;;;;;;;23.70;100.00;99793.50;1632396;87;21619;-57
2022/07/23 10:59:28;;;;;;;4.83;2.10;;;;;;;23.58;100.00;99809.02;1632583;87;21232;-57
2022/07/23 11:02:23;;;;;;;3.27;2.20;;;;;;;23.37;100.00;99814.50;1632430;87;22098;-59
2022/07/23 11:04:52;;;;;;;3.20;2.13;;;;;;;23.17;100.00;99822.64;1632432;87;20992;-59
2022/07/23 11:07:19;;;;;;;3.17;1.80;;;;;;;22.81;100.00;99818.86;1633144;86;21535;-65
2022/07/23 11:09:47;;;;;;;2.60;1.77;;;;;;;22.48;100.00;99815.03;1632765;87;21065;-59
2022/07/23 11:12:30;;;;;;;3.60;1.67;;;;;;;22.32;100.00;99821.73;1632975;87;21065;-59
2022/07/23 11:15:08;;;;;;;;;;;;;;;22.14;100.00;99814.89;1635534;87;21261;-59
2022/07/23 11:17:47;;;;;;;9.87;4.10;;;;;;;22.13;100.00;99811.95;1633205;87;20156;-59
2022/07/23 11:20:21;;;;;;;7.77;4.50;;;;;;;22.26;100.00;99815.38;1632342;87;21081;-64
2022/07/23 11:22:58;;;;;;;11.33;5.07;;;;;;;22.44;100.00;99817.98;1632894;87;21110;-62
2022/07/23 11:25:30;;;;;;;19.60;9.67;;;;;;;22.70;100.00;99826.09;1633371;87;21009;-59
2022/07/23 11:28:16;;;;;;;17.83;8.30;;;;;;;23.12;100.00;99823.48;1632701;87;21235;-61
2022/07/23 11:30:45;;;;;;;16.20;8.23;;;;;;;23.45;100.00;99819.25;1632723;87;20892;-59
2022/07/23 11:33:16;;;;;;;7.83;3.73;;;;;;;23.79;100.00;99830.42;1633154;86;21010;-59
2022/07/23 11:35:47;;;;;;;5.43;2.50;;;;;;;24.07;100.00;99824.01;1632431;87;21066;-60
2022/07/23 11:38:20;;;;;;;5.43;2.70;;;;;;;24.40;100.00;99828.45;1633578;87;21088;-64